sensor_id;sensor_type;location;lat;lon;timestamp;P1;durP1;ratioP1;P2;durP2;ratioP2
16101;SDS011;56411;52.964;10.540;2023-04-10T00:00:09;61.50;;;32.60;;
16101;SDS011;56411;52.964;10.540;2023-04-10T00:02:37;65.40;;;32.77;;
16101;SDS011;56411;52.964;10.540;2023-04-10T00:05:05;58.97;;;32.60;;
16101;SDS011;56411;52.964;10.540;2023-04-10T00:07:33;64.67;;;34.03;;
16101;SDS011;56411;52.964;10.540;2023-04-10T00:10:00;62.57;;;33.83;;
16101;SDS011;56411;52.964;10.540;2023-04-10T00:12:29;63.67;;;34.80;;
16101;SDS011;56411;52.964;10.540;2023-04-10T00:14:56;65.47;;;34.47;;
16101;SDS011;56411;52.964;10.540;2023-04-10T00:17:23;63.43;;;33.77;;
16101;SDS011;56411;52.964;10.540;2023-04-10T00:19:50;62.23;;;33.17;;
16101;SDS011;56411;52.964;10.540;2023-04-10T00:22:17;66.33;;;34.80;;
16101;SDS011;56411;52.964;10.540;2023-04-10T00:24:44;63.80;;;33.77;;
16101;SDS011;56411;52.964;10.540;2023-04-10T00:27:11;62.93;;;34.03;;
16101;SDS011;56411;52.964;10.540;2023-04-10T00:29:40;60.60;;;33.83;;
16101;SDS011;56411;52.964;10.540;2023-04-10T00:32:07;62.43;;;34.07;;
16101;SDS011;56411;52.964;10.540;2023-04-10T00:34:34;63.20;;;33.07;;
16101;SDS011;56411;52.964;10.540;2023-04-10T00:37:01;64.23;;;33.13;;
16101;SDS011;56411;52.964;10.540;2023-04-10T00:39:28;65.57;;;35.57;;
16101;SDS011;56411;52.964;10.540;2023-04-10T00:41:55;71.77;;;37.10;;
16101;SDS011;56411;52.964;10.540;2023-04-10T00:44:23;70.17;;;37.17;;
16101;SDS011;56411;52.964;10.540;2023-04-10T00:46:51;67.73;;;35.17;;
16101;SDS011;56411;52.964;10.540;2023-04-10T00:49:18;63.60;;;34.43;;
16101;SDS011;56411;52.964;10.540;2023-04-10T00:51:46;64.77;;;34.93;;
16101;SDS011;56411;52.964;10.540;2023-04-10T00:54:13;60.70;;;32.93;;
16101;SDS011;56411;52.964;10.540;2023-04-10T00:56:40;63.83;;;33.70;;
16101;SDS011;56411;52.964;10.540;2023-04-10T00:59:09;67.53;;;35.23;;
16101;SDS011;56411;52.964;10.540;2023-04-10T01:01:36;67.97;;;37.40;;
16101;SDS011;56411;52.964;10.540;2023-04-10T01:04:05;82.23;;;40.13;;
16101;SDS011;56411;52.964;10.540;2023-04-10T01:06:36;67.47;;;34.87;;
16101;SDS011;56411;52.964;10.540;2023-04-10T01:09:23;66.67;;;35.10;;
16101;SDS011;56411;52.964;10.540;2023-04-10T01:12:01;69.00;;;36.20;;
16101;SDS011;56411;52.964;10.540;2023-04-10T01:14:37;67.93;;;34.03;;
16101;SDS011;56411;52.964;10.540;2023-04-10T01:17:12;65.87;;;34.27;;
16101;SDS011;56411;52.964;10.540;2023-04-10T01:22:41;71.30;;;36.20;;
16101;SDS011;56411;52.964;10.540;2023-04-10T01:28:08;67.83;;;34.60;;
16101;SDS011;56411;52.964;10.540;2023-04-10T01:30:50;71.60;;;34.43;;
16101;SDS011;56411;52.964;10.540;2023-04-10T01:33:21;65.30;;;33.47;;
16101;SDS011;56411;52.964;10.540;2023-04-10T01:35:53;64.20;;;32.23;;
16101;SDS011;56411;52.964;10.540;2023-04-10T01:38:23;62.43;;;34.07;;
16101;SDS011;56411;52.964;10.540;2023-04-10T01:40:54;65.53;;;33.33;;
16101;SDS011;56411;52.964;10.540;2023-04-10T01:43:23;63.63;;;33.77;;
16101;SDS011;56411;52.964;10.540;2023-04-10T01:45:53;64.27;;;33.27;;
16101;SDS011;56411;52.964;10.540;2023-04-10T01:48:21;69.63;;;33.90;;
16101;SDS011;56411;52.964;10.540;2023-04-10T01:50:48;66.27;;;33.57;;
16101;SDS011;56411;52.964;10.540;2023-04-10T01:53:17;68.83;;;34.00;;
16101;SDS011;56411;52.964;10.540;2023-04-10T01:55:44;70.60;;;35.33;;
16101;SDS011;56411;52.964;10.540;2023-04-10T01:58:12;66.90;;;34.80;;
16101;SDS011;56411;52.964;10.540;2023-04-10T02:00:40;67.87;;;36.63;;
16101;SDS011;56411;52.964;10.540;2023-04-10T02:03:09;75.23;;;36.70;;
16101;SDS011;56411;52.964;10.540;2023-04-10T02:05:45;75.40;;;38.20;;
16101;SDS011;56411;52.964;10.540;2023-04-10T02:08:21;77.97;;;37.33;;
16101;SDS011;56411;52.964;10.540;2023-04-10T02:10:57;87.10;;;42.20;;
16101;SDS011;56411;52.964;10.540;2023-04-10T02:13:33;101.27;;;48.03;;
16101;SDS011;56411;52.964;10.540;2023-04-10T02:16:05;101.73;;;44.73;;
16101;SDS011;56411;52.964;10.540;2023-04-10T02:18:35;85.80;;;40.17;;
16101;SDS011;56411;52.964;10.540;2023-04-10T02:21:04;76.80;;;38.97;;
16101;SDS011;56411;52.964;10.540;2023-04-10T02:23:31;79.13;;;39.40;;
16101;SDS011;56411;52.964;10.540;2023-04-10T02:26:04;77.50;;;37.53;;
16101;SDS011;56411;52.964;10.540;2023-04-10T02:28:32;75.73;;;37.07;;
16101;SDS011;56411;52.964;10.540;2023-04-10T02:30:59;71.03;;;35.23;;
16101;SDS011;56411;52.964;10.540;2023-04-10T02:33:26;71.10;;;35.17;;
16101;SDS011;56411;52.964;10.540;2023-04-10T02:35:55;63.00;;;34.93;;
16101;SDS011;56411;52.964;10.540;2023-04-10T02:38:22;71.50;;;34.77;;
16101;SDS011;56411;52.964;10.540;2023-04-10T02:40:49;65.20;;;34.13;;
16101;SDS011;56411;52.964;10.540;2023-04-10T02:43:16;64.50;;;33.07;;
16101;SDS011;56411;52.964;10.540;2023-04-10T02:45:43;69.80;;;33.23;;
16101;SDS011;56411;52.964;10.540;2023-04-10T02:48:10;65.23;;;33.53;;
16101;SDS011;56411;52.964;10.540;2023-04-10T02:50:37;59.80;;;31.30;;
16101;SDS011;56411;52.964;10.540;2023-04-10T02:53:12;67.27;;;33.67;;
16101;SDS011;56411;52.964;10.540;2023-04-10T02:55:39;65.53;;;33.90;;
16101;SDS011;56411;52.964;10.540;2023-04-10T02:58:06;68.97;;;35.70;;
16101;SDS011;56411;52.964;10.540;2023-04-10T03:00:33;68.70;;;34.30;;
16101;SDS011;56411;52.964;10.540;2023-04-10T03:03:01;69.47;;;33.30;;
16101;SDS011;56411;52.964;10.540;2023-04-10T03:05:29;68.77;;;32.97;;
16101;SDS011;56411;52.964;10.540;2023-04-10T03:07:56;71.27;;;35.03;;
16101;SDS011;56411;52.964;10.540;2023-04-10T03:10:24;68.00;;;35.73;;
16101;SDS011;56411;52.964;10.540;2023-04-10T03:12:51;69.13;;;33.53;;
16101;SDS011;56411;52.964;10.540;2023-04-10T03:15:19;69.50;;;35.80;;
16101;SDS011;56411;52.964;10.540;2023-04-10T03:17:45;70.37;;;33.97;;
16101;SDS011;56411;52.964;10.540;2023-04-10T03:20:12;72.40;;;34.73;;
16101;SDS011;56411;52.964;10.540;2023-04-10T03:22:41;76.60;;;35.27;;
16101;SDS011;56411;52.964;10.540;2023-04-10T03:25:08;76.30;;;38.23;;
16101;SDS011;56411;52.964;10.540;2023-04-10T03:27:37;75.97;;;36.77;;
16101;SDS011;56411;52.964;10.540;2023-04-10T03:30:04;70.43;;;35.07;;
16101;SDS011;56411;52.964;10.540;2023-04-10T03:32:33;63.00;;;32.70;;
16101;SDS011;56411;52.964;10.540;2023-04-10T03:35:00;66.83;;;33.57;;
16101;SDS011;56411;52.964;10.540;2023-04-10T03:37:27;72.43;;;33.70;;
16101;SDS011;56411;52.964;10.540;2023-04-10T03:39:55;66.37;;;33.87;;
16101;SDS011;56411;52.964;10.540;2023-04-10T03:42:22;65.87;;;32.67;;
16101;SDS011;56411;52.964;10.540;2023-04-10T03:44:51;68.33;;;33.57;;
16101;SDS011;56411;52.964;10.540;2023-04-10T03:47:18;65.73;;;32.50;;
16101;SDS011;56411;52.964;10.540;2023-04-10T03:49:46;65.70;;;32.97;;
16101;SDS011;56411;52.964;10.540;2023-04-10T03:52:13;71.23;;;34.30;;
16101;SDS011;56411;52.964;10.540;2023-04-10T03:54:40;69.10;;;32.97;;
16101;SDS011;56411;52.964;10.540;2023-04-10T03:57:07;70.23;;;33.10;;
16101;SDS011;56411;52.964;10.540;2023-04-10T03:59:34;72.43;;;33.00;;
16101;SDS011;56411;52.964;10.540;2023-04-10T04:02:03;71.30;;;32.90;;
16101;SDS011;56411;52.964;10.540;2023-04-10T04:04:31;65.77;;;33.27;;
16101;SDS011;56411;52.964;10.540;2023-04-10T04:06:59;72.97;;;34.10;;
16101;SDS011;56411;52.964;10.540;2023-04-10T04:09:26;69.57;;;35.17;;
16101;SDS011;56411;52.964;10.540;2023-04-10T04:11:52;68.53;;;33.63;;
16101;SDS011;56411;52.964;10.540;2023-04-10T04:14:20;73.60;;;33.87;;
16101;SDS011;56411;52.964;10.540;2023-04-10T04:16:47;69.73;;;33.00;;
16101;SDS011;56411;52.964;10.540;2023-04-10T04:19:16;66.27;;;32.93;;
16101;SDS011;56411;52.964;10.540;2023-04-10T04:21:43;65.00;;;32.27;;
16101;SDS011;56411;52.964;10.540;2023-04-10T04:24:10;66.13;;;32.37;;
16101;SDS011;56411;52.964;10.540;2023-04-10T04:26:37;69.23;;;32.47;;
16101;SDS011;56411;52.964;10.540;2023-04-10T04:29:04;66.90;;;31.57;;
16101;SDS011;56411;52.964;10.540;2023-04-10T04:31:31;67.03;;;32.03;;
16101;SDS011;56411;52.964;10.540;2023-04-10T04:33:58;67.33;;;33.03;;
16101;SDS011;56411;52.964;10.540;2023-04-10T04:36:27;73.33;;;33.47;;
16101;SDS011;56411;52.964;10.540;2023-04-10T04:38:54;73.90;;;32.13;;
16101;SDS011;56411;52.964;10.540;2023-04-10T04:41:21;71.23;;;32.60;;
16101;SDS011;56411;52.964;10.540;2023-04-10T04:43:48;62.73;;;30.53;;
16101;SDS011;56411;52.964;10.540;2023-04-10T04:46:17;70.17;;;32.60;;
16101;SDS011;56411;52.964;10.540;2023-04-10T04:48:44;64.53;;;31.93;;
16101;SDS011;56411;52.964;10.540;2023-04-10T04:51:11;71.43;;;31.83;;
16101;SDS011;56411;52.964;10.540;2023-04-10T04:53:39;67.93;;;32.03;;
16101;SDS011;56411;52.964;10.540;2023-04-10T04:56:06;70.67;;;32.97;;
16101;SDS011;56411;52.964;10.540;2023-04-10T04:58:34;64.47;;;31.57;;
16101;SDS011;56411;52.964;10.540;2023-04-10T05:01:01;70.23;;;32.23;;
16101;SDS011;56411;52.964;10.540;2023-04-10T05:03:28;64.93;;;31.73;;
16101;SDS011;56411;52.964;10.540;2023-04-10T05:05:56;69.83;;;32.20;;
16101;SDS011;56411;52.964;10.540;2023-04-10T05:08:23;69.10;;;32.20;;
16101;SDS011;56411;52.964;10.540;2023-04-10T05:10:52;65.80;;;32.53;;
16101;SDS011;56411;52.964;10.540;2023-04-10T05:13:19;72.87;;;33.17;;
16101;SDS011;56411;52.964;10.540;2023-04-10T05:15:47;70.53;;;31.80;;
16101;SDS011;56411;52.964;10.540;2023-04-10T05:18:14;72.93;;;33.33;;
16101;SDS011;56411;52.964;10.540;2023-04-10T05:20:43;69.90;;;32.90;;
16101;SDS011;56411;52.964;10.540;2023-04-10T05:23:12;71.20;;;33.27;;
16101;SDS011;56411;52.964;10.540;2023-04-10T05:25:39;66.60;;;32.60;;
16101;SDS011;56411;52.964;10.540;2023-04-10T05:28:07;62.70;;;31.90;;
16101;SDS011;56411;52.964;10.540;2023-04-10T05:30:34;70.73;;;31.67;;
16101;SDS011;56411;52.964;10.540;2023-04-10T05:33:01;64.13;;;32.23;;
16101;SDS011;56411;52.964;10.540;2023-04-10T05:35:29;66.03;;;32.20;;
16101;SDS011;56411;52.964;10.540;2023-04-10T05:37:56;64.07;;;33.73;;
16101;SDS011;56411;52.964;10.540;2023-04-10T05:40:24;58.90;;;29.63;;
16101;SDS011;56411;52.964;10.540;2023-04-10T05:42:51;59.73;;;31.00;;
16101;SDS011;56411;52.964;10.540;2023-04-10T05:45:20;60.13;;;31.50;;
16101;SDS011;56411;52.964;10.540;2023-04-10T05:47:47;60.50;;;31.03;;
16101;SDS011;56411;52.964;10.540;2023-04-10T05:50:14;58.23;;;29.80;;
16101;SDS011;56411;52.964;10.540;2023-04-10T05:52:41;58.57;;;29.97;;
16101;SDS011;56411;52.964;10.540;2023-04-10T05:55:08;58.47;;;30.13;;
16101;SDS011;56411;52.964;10.540;2023-04-10T05:57:35;58.83;;;30.27;;
16101;SDS011;56411;52.964;10.540;2023-04-10T06:00:03;60.23;;;31.07;;
16101;SDS011;56411;52.964;10.540;2023-04-10T06:02:32;56.63;;;29.37;;
16101;SDS011;56411;52.964;10.540;2023-04-10T06:05:00;59.00;;;31.77;;
16101;SDS011;56411;52.964;10.540;2023-04-10T06:07:27;61.30;;;30.20;;
16101;SDS011;56411;52.964;10.540;2023-04-10T06:09:54;53.80;;;29.57;;
16101;SDS011;56411;52.964;10.540;2023-04-10T06:12:21;55.07;;;29.70;;
16101;SDS011;56411;52.964;10.540;2023-04-10T06:14:48;51.57;;;28.80;;
16101;SDS011;56411;52.964;10.540;2023-04-10T06:17:15;51.87;;;29.00;;
16101;SDS011;56411;52.964;10.540;2023-04-10T06:19:46;49.70;;;28.83;;
16101;SDS011;56411;52.964;10.540;2023-04-10T06:22:13;54.10;;;30.33;;
16101;SDS011;56411;52.964;10.540;2023-04-10T06:24:40;52.27;;;29.70;;
16101;SDS011;56411;52.964;10.540;2023-04-10T06:27:08;48.70;;;28.70;;
16101;SDS011;56411;52.964;10.540;2023-04-10T06:29:36;54.67;;;29.87;;
16101;SDS011;56411;52.964;10.540;2023-04-10T06:32:03;49.10;;;28.63;;
16101;SDS011;56411;52.964;10.540;2023-04-10T06:34:30;50.03;;;30.00;;
16101;SDS011;56411;52.964;10.540;2023-04-10T06:36:59;46.20;;;27.17;;
16101;SDS011;56411;52.964;10.540;2023-04-10T06:39:26;44.03;;;27.20;;
16101;SDS011;56411;52.964;10.540;2023-04-10T06:41:53;46.07;;;27.00;;
16101;SDS011;56411;52.964;10.540;2023-04-10T06:44:20;42.83;;;26.33;;
16101;SDS011;56411;52.964;10.540;2023-04-10T06:46:47;43.70;;;26.00;;
16101;SDS011;56411;52.964;10.540;2023-04-10T06:49:14;44.30;;;27.70;;
16101;SDS011;56411;52.964;10.540;2023-04-10T06:51:41;44.57;;;26.77;;
16101;SDS011;56411;52.964;10.540;2023-04-10T06:54:11;44.37;;;27.33;;
16101;SDS011;56411;52.964;10.540;2023-04-10T06:56:38;41.20;;;25.77;;
16101;SDS011;56411;52.964;10.540;2023-04-10T06:59:05;40.73;;;25.93;;
16101;SDS011;56411;52.964;10.540;2023-04-10T07:01:32;42.43;;;25.57;;
16101;SDS011;56411;52.964;10.540;2023-04-10T07:03:59;40.57;;;25.57;;
16101;SDS011;56411;52.964;10.540;2023-04-10T07:06:26;38.07;;;24.23;;
16101;SDS011;56411;52.964;10.540;2023-04-10T07:08:53;39.63;;;23.77;;
16101;SDS011;56411;52.964;10.540;2023-04-10T07:11:22;33.40;;;22.17;;
16101;SDS011;56411;52.964;10.540;2023-04-10T07:13:49;35.10;;;21.87;;
16101;SDS011;56411;52.964;10.540;2023-04-10T07:16:17;33.60;;;21.33;;
16101;SDS011;56411;52.964;10.540;2023-04-10T07:18:44;33.93;;;20.87;;
16101;SDS011;56411;52.964;10.540;2023-04-10T07:21:11;33.47;;;20.80;;
16101;SDS011;56411;52.964;10.540;2023-04-10T07:23:38;34.17;;;22.13;;
16101;SDS011;56411;52.964;10.540;2023-04-10T07:26:06;32.47;;;20.70;;
16101;SDS011;56411;52.964;10.540;2023-04-10T07:28:34;32.83;;;21.67;;
16101;SDS011;56411;52.964;10.540;2023-04-10T07:31:02;31.23;;;20.20;;
16101;SDS011;56411;52.964;10.540;2023-04-10T07:33:29;31.83;;;20.57;;
16101;SDS011;56411;52.964;10.540;2023-04-10T07:35:57;31.03;;;20.00;;
16101;SDS011;56411;52.964;10.540;2023-04-10T07:38:26;29.23;;;18.70;;
16101;SDS011;56411;52.964;10.540;2023-04-10T07:40:54;25.53;;;17.53;;
16101;SDS011;56411;52.964;10.540;2023-04-10T07:43:21;25.50;;;16.87;;
16101;SDS011;56411;52.964;10.540;2023-04-10T07:45:50;27.83;;;18.00;;
16101;SDS011;56411;52.964;10.540;2023-04-10T07:48:17;29.67;;;18.17;;
16101;SDS011;56411;52.964;10.540;2023-04-10T07:50:45;27.70;;;17.93;;
16101;SDS011;56411;52.964;10.540;2023-04-10T07:53:12;28.17;;;18.03;;
16101;SDS011;56411;52.964;10.540;2023-04-10T07:55:40;25.63;;;16.30;;
16101;SDS011;56411;52.964;10.540;2023-04-10T07:58:08;23.93;;;16.33;;
16101;SDS011;56411;52.964;10.540;2023-04-10T08:00:36;27.60;;;16.50;;
16101;SDS011;56411;52.964;10.540;2023-04-10T08:03:05;25.23;;;16.23;;
16101;SDS011;56411;52.964;10.540;2023-04-10T08:05:32;23.70;;;14.83;;
16101;SDS011;56411;52.964;10.540;2023-04-10T08:08:00;24.00;;;15.67;;
16101;SDS011;56411;52.964;10.540;2023-04-10T08:10:27;23.53;;;14.70;;
16101;SDS011;56411;52.964;10.540;2023-04-10T08:12:54;25.05;;;15.32;;
16101;SDS011;56411;52.964;10.540;2023-04-10T08:15:21;26.30;;;16.37;;
16101;SDS011;56411;52.964;10.540;2023-04-10T08:17:48;22.67;;;14.85;;
16101;SDS011;56411;52.964;10.540;2023-04-10T08:20:17;21.47;;;14.50;;
16101;SDS011;56411;52.964;10.540;2023-04-10T08:22:44;24.33;;;16.33;;
16101;SDS011;56411;52.964;10.540;2023-04-10T08:25:11;22.13;;;14.43;;
16101;SDS011;56411;52.964;10.540;2023-04-10T08:27:39;21.35;;;14.10;;
16101;SDS011;56411;52.964;10.540;2023-04-10T08:30:06;21.08;;;14.10;;
16101;SDS011;56411;52.964;10.540;2023-04-10T08:32:34;22.30;;;14.30;;
16101;SDS011;56411;52.964;10.540;2023-04-10T08:35:01;19.65;;;13.40;;
16101;SDS011;56411;52.964;10.540;2023-04-10T08:37:38;21.80;;;14.03;;
16101;SDS011;56411;52.964;10.540;2023-04-10T08:40:06;21.27;;;13.75;;
16101;SDS011;56411;52.964;10.540;2023-04-10T08:42:34;20.67;;;13.38;;
16101;SDS011;56411;52.964;10.540;2023-04-10T08:45:02;20.25;;;13.38;;
16101;SDS011;56411;52.964;10.540;2023-04-10T08:47:29;19.08;;;12.95;;
16101;SDS011;56411;52.964;10.540;2023-04-10T08:50:04;22.13;;;13.57;;
16101;SDS011;56411;52.964;10.540;2023-04-10T08:52:34;19.00;;;12.90;;
16101;SDS011;56411;52.964;10.540;2023-04-10T08:55:08;19.98;;;13.05;;
16101;SDS011;56411;52.964;10.540;2023-04-10T08:57:38;18.92;;;13.30;;
16101;SDS011;56411;52.964;10.540;2023-04-10T09:00:07;19.92;;;13.02;;
16101;SDS011;56411;52.964;10.540;2023-04-10T09:02:36;21.17;;;12.95;;
16101;SDS011;56411;52.964;10.540;2023-04-10T09:05:05;19.08;;;12.48;;
16101;SDS011;56411;52.964;10.540;2023-04-10T09:07:37;18.27;;;11.65;;
16101;SDS011;56411;52.964;10.540;2023-04-10T09:10:05;18.58;;;11.95;;
16101;SDS011;56411;52.964;10.540;2023-04-10T09:12:41;17.98;;;11.80;;
16101;SDS011;56411;52.964;10.540;2023-04-10T09:15:10;18.65;;;12.32;;
16101;SDS011;56411;52.964;10.540;2023-04-10T09:17:38;18.20;;;12.25;;
16101;SDS011;56411;52.964;10.540;2023-04-10T09:20:22;19.25;;;12.88;;
16101;SDS011;56411;52.964;10.540;2023-04-10T09:22:51;17.65;;;11.70;;
16101;SDS011;56411;52.964;10.540;2023-04-10T09:25:32;18.85;;;12.05;;
16101;SDS011;56411;52.964;10.540;2023-04-10T09:28:02;17.38;;;11.65;;
16101;SDS011;56411;52.964;10.540;2023-04-10T09:30:34;18.38;;;11.50;;
16101;SDS011;56411;52.964;10.540;2023-04-10T09:33:02;16.13;;;10.80;;
16101;SDS011;56411;52.964;10.540;2023-04-10T09:35:36;17.15;;;10.77;;
16101;SDS011;56411;52.964;10.540;2023-04-10T09:40:49;15.15;;;9.77;;
16101;SDS011;56411;52.964;10.540;2023-04-10T09:43:20;16.73;;;10.25;;
16101;SDS011;56411;52.964;10.540;2023-04-10T09:45:50;16.48;;;10.30;;
16101;SDS011;56411;52.964;10.540;2023-04-10T09:48:19;14.90;;;9.63;;
16101;SDS011;56411;52.964;10.540;2023-04-10T09:50:47;16.42;;;9.95;;
16101;SDS011;56411;52.964;10.540;2023-04-10T09:53:15;14.45;;;9.13;;
16101;SDS011;56411;52.964;10.540;2023-04-10T09:55:45;14.23;;;8.45;;
16101;SDS011;56411;52.964;10.540;2023-04-10T09:58:13;14.57;;;9.10;;
16101;SDS011;56411;52.964;10.540;2023-04-10T10:00:42;14.20;;;8.48;;
16101;SDS011;56411;52.964;10.540;2023-04-10T10:03:10;15.07;;;9.52;;
16101;SDS011;56411;52.964;10.540;2023-04-10T10:05:40;14.07;;;8.88;;
16101;SDS011;56411;52.964;10.540;2023-04-10T10:08:09;13.32;;;8.43;;
16101;SDS011;56411;52.964;10.540;2023-04-10T10:10:38;13.80;;;8.13;;
16101;SDS011;56411;52.964;10.540;2023-04-10T10:13:14;12.55;;;7.55;;
16101;SDS011;56411;52.964;10.540;2023-04-10T10:15:45;14.80;;;9.07;;
16101;SDS011;56411;52.964;10.540;2023-04-10T10:18:21;12.50;;;7.78;;
16101;SDS011;56411;52.964;10.540;2023-04-10T10:20:52;14.23;;;8.50;;
16101;SDS011;56411;52.964;10.540;2023-04-10T10:23:20;13.48;;;8.27;;
16101;SDS011;56411;52.964;10.540;2023-04-10T10:25:47;12.95;;;8.10;;
16101;SDS011;56411;52.964;10.540;2023-04-10T10:28:17;12.38;;;6.97;;
16101;SDS011;56411;52.964;10.540;2023-04-10T10:30:46;11.80;;;7.03;;
16101;SDS011;56411;52.964;10.540;2023-04-10T10:33:13;13.52;;;7.90;;
16101;SDS011;56411;52.964;10.540;2023-04-10T10:35:40;11.45;;;6.68;;
16101;SDS011;56411;52.964;10.540;2023-04-10T10:38:08;12.15;;;7.50;;
16101;SDS011;56411;52.964;10.540;2023-04-10T10:40:37;12.35;;;6.97;;
16101;SDS011;56411;52.964;10.540;2023-04-10T10:43:12;12.30;;;7.03;;
16101;SDS011;56411;52.964;10.540;2023-04-10T10:45:47;11.80;;;6.70;;
16101;SDS011;56411;52.964;10.540;2023-04-10T10:48:17;11.52;;;6.95;;
16101;SDS011;56411;52.964;10.540;2023-04-10T10:50:51;12.10;;;7.05;;
16101;SDS011;56411;52.964;10.540;2023-04-10T10:53:31;12.93;;;7.20;;
16101;SDS011;56411;52.964;10.540;2023-04-10T10:59:02;12.18;;;7.07;;
16101;SDS011;56411;52.964;10.540;2023-04-10T11:01:31;11.95;;;7.10;;
16101;SDS011;56411;52.964;10.540;2023-04-10T11:03:58;11.93;;;6.97;;
16101;SDS011;56411;52.964;10.540;2023-04-10T11:12:12;12.77;;;7.57;;
16101;SDS011;56411;52.964;10.540;2023-04-10T11:14:39;11.82;;;6.75;;
16101;SDS011;56411;52.964;10.540;2023-04-10T11:17:10;11.43;;;6.60;;
16101;SDS011;56411;52.964;10.540;2023-04-10T11:19:56;12.18;;;6.80;;
16101;SDS011;56411;52.964;10.540;2023-04-10T11:22:25;10.98;;;6.38;;
16101;SDS011;56411;52.964;10.540;2023-04-10T11:24:56;10.00;;;5.90;;
16101;SDS011;56411;52.964;10.540;2023-04-10T11:30:30;11.18;;;5.80;;
16101;SDS011;56411;52.964;10.540;2023-04-10T11:33:00;10.65;;;6.28;;
16101;SDS011;56411;52.964;10.540;2023-04-10T11:35:28;11.02;;;5.70;;
16101;SDS011;56411;52.964;10.540;2023-04-10T11:38:10;10.98;;;6.22;;
16101;SDS011;56411;52.964;10.540;2023-04-10T11:40:53;11.15;;;6.35;;
16101;SDS011;56411;52.964;10.540;2023-04-10T11:43:25;10.10;;;5.63;;
16101;SDS011;56411;52.964;10.540;2023-04-10T11:45:59;10.68;;;5.80;;
16101;SDS011;56411;52.964;10.540;2023-04-10T11:48:29;11.00;;;6.35;;
16101;SDS011;56411;52.964;10.540;2023-04-10T11:50:56;11.02;;;6.47;;
16101;SDS011;56411;52.964;10.540;2023-04-10T11:53:25;12.27;;;7.03;;
16101;SDS011;56411;52.964;10.540;2023-04-10T11:55:54;12.70;;;7.78;;
16101;SDS011;56411;52.964;10.540;2023-04-10T11:58:25;13.35;;;8.60;;
16101;SDS011;56411;52.964;10.540;2023-04-10T12:00:55;13.25;;;8.10;;
16101;SDS011;56411;52.964;10.540;2023-04-10T12:03:37;12.88;;;7.75;;
16101;SDS011;56411;52.964;10.540;2023-04-10T12:06:09;12.75;;;8.07;;
16101;SDS011;56411;52.964;10.540;2023-04-10T12:08:37;12.50;;;7.97;;
16101;SDS011;56411;52.964;10.540;2023-04-10T12:11:06;13.82;;;8.23;;
16101;SDS011;56411;52.964;10.540;2023-04-10T12:13:34;12.85;;;7.68;;
16101;SDS011;56411;52.964;10.540;2023-04-10T12:16:03;13.20;;;8.43;;
16101;SDS011;56411;52.964;10.540;2023-04-10T12:18:33;13.55;;;8.02;;
16101;SDS011;56411;52.964;10.540;2023-04-10T12:21:02;13.13;;;8.05;;
16101;SDS011;56411;52.964;10.540;2023-04-10T12:23:30;13.95;;;8.50;;
16101;SDS011;56411;52.964;10.540;2023-04-10T12:26:07;13.60;;;8.32;;
16101;SDS011;56411;52.964;10.540;2023-04-10T12:28:36;13.13;;;7.97;;
16101;SDS011;56411;52.964;10.540;2023-04-10T12:31:04;13.20;;;8.57;;
16101;SDS011;56411;52.964;10.540;2023-04-10T12:33:32;14.00;;;8.30;;
16101;SDS011;56411;52.964;10.540;2023-04-10T12:35:59;13.20;;;8.02;;
16101;SDS011;56411;52.964;10.540;2023-04-10T12:38:34;12.75;;;8.65;;
16101;SDS011;56411;52.964;10.540;2023-04-10T12:41:05;12.38;;;7.88;;
16101;SDS011;56411;52.964;10.540;2023-04-10T12:43:34;12.25;;;7.95;;
16101;SDS011;56411;52.964;10.540;2023-04-10T12:46:03;12.43;;;8.23;;
16101;SDS011;56411;52.964;10.540;2023-04-10T12:48:31;12.80;;;8.20;;
16101;SDS011;56411;52.964;10.540;2023-04-10T12:50:59;12.80;;;8.38;;
16101;SDS011;56411;52.964;10.540;2023-04-10T12:53:28;12.98;;;8.85;;
16101;SDS011;56411;52.964;10.540;2023-04-10T12:55:59;12.82;;;8.25;;
16101;SDS011;56411;52.964;10.540;2023-04-10T12:58:30;12.73;;;8.40;;
16101;SDS011;56411;52.964;10.540;2023-04-10T13:01:01;11.65;;;7.47;;
16101;SDS011;56411;52.964;10.540;2023-04-10T13:03:29;11.80;;;7.70;;
16101;SDS011;56411;52.964;10.540;2023-04-10T13:05:58;12.18;;;7.80;;
16101;SDS011;56411;52.964;10.540;2023-04-10T13:08:25;12.18;;;7.85;;
16101;SDS011;56411;52.964;10.540;2023-04-10T13:10:56;13.18;;;8.63;;
16101;SDS011;56411;52.964;10.540;2023-04-10T13:13:27;12.70;;;7.95;;
16101;SDS011;56411;52.964;10.540;2023-04-10T13:15:55;12.57;;;7.68;;
16101;SDS011;56411;52.964;10.540;2023-04-10T13:18:22;11.82;;;7.50;;
16101;SDS011;56411;52.964;10.540;2023-04-10T13:20:49;11.70;;;7.63;;
16101;SDS011;56411;52.964;10.540;2023-04-10T13:23:17;13.85;;;8.10;;
16101;SDS011;56411;52.964;10.540;2023-04-10T13:25:45;13.43;;;9.13;;
16101;SDS011;56411;52.964;10.540;2023-04-10T13:28:12;12.10;;;7.63;;
16101;SDS011;56411;52.964;10.540;2023-04-10T13:30:40;12.18;;;7.53;;
16101;SDS011;56411;52.964;10.540;2023-04-10T13:33:07;13.50;;;8.80;;
16101;SDS011;56411;52.964;10.540;2023-04-10T13:35:35;14.30;;;10.18;;
16101;SDS011;56411;52.964;10.540;2023-04-10T13:40:44;20.70;;;10.75;;
16101;SDS011;56411;52.964;10.540;2023-04-10T13:43:12;25.80;;;14.35;;
16101;SDS011;56411;52.964;10.540;2023-04-10T13:45:39;16.45;;;9.00;;
16101;SDS011;56411;52.964;10.540;2023-04-10T13:48:06;15.75;;;8.82;;
16101;SDS011;56411;52.964;10.540;2023-04-10T13:50:33;17.13;;;9.52;;
16101;SDS011;56411;52.964;10.540;2023-04-10T13:53:01;12.73;;;7.65;;
16101;SDS011;56411;52.964;10.540;2023-04-10T13:55:28;20.27;;;11.90;;
16101;SDS011;56411;52.964;10.540;2023-04-10T13:57:57;52.33;;;37.72;;
16101;SDS011;56411;52.964;10.540;2023-04-10T14:00:24;47.97;;;35.70;;
16101;SDS011;56411;52.964;10.540;2023-04-10T14:02:51;34.40;;;25.42;;
16101;SDS011;56411;52.964;10.540;2023-04-10T14:05:18;21.23;;;12.25;;
16101;SDS011;56411;52.964;10.540;2023-04-10T14:07:45;36.30;;;17.30;;
16101;SDS011;56411;52.964;10.540;2023-04-10T14:10:15;30.00;;;15.98;;
16101;SDS011;56411;52.964;10.540;2023-04-10T14:12:44;19.13;;;11.52;;
16101;SDS011;56411;52.964;10.540;2023-04-10T14:15:12;13.75;;;7.75;;
16101;SDS011;56411;52.964;10.540;2023-04-10T14:17:39;11.43;;;6.22;;
16101;SDS011;56411;52.964;10.540;2023-04-10T14:20:06;11.75;;;6.05;;
16101;SDS011;56411;52.964;10.540;2023-04-10T14:22:35;11.10;;;6.13;;
16101;SDS011;56411;52.964;10.540;2023-04-10T14:25:02;12.40;;;7.55;;
16101;SDS011;56411;52.964;10.540;2023-04-10T14:27:30;11.80;;;6.68;;
16101;SDS011;56411;52.964;10.540;2023-04-10T14:29:59;10.23;;;6.20;;
16101;SDS011;56411;52.964;10.540;2023-04-10T14:32:27;11.18;;;5.80;;
16101;SDS011;56411;52.964;10.540;2023-04-10T14:34:55;10.73;;;5.90;;
16101;SDS011;56411;52.964;10.540;2023-04-10T14:37:22;11.10;;;5.35;;
16101;SDS011;56411;52.964;10.540;2023-04-10T14:39:49;11.77;;;6.40;;
16101;SDS011;56411;52.964;10.540;2023-04-10T14:42:16;10.52;;;6.13;;
16101;SDS011;56411;52.964;10.540;2023-04-10T14:44:43;12.02;;;7.70;;